CheckWX is a tool to help pilots better visualize weather data.  It is not intended as a substitute for an official pre-flight weather briefing.

18:00:56 UTC

RCFN TAF
Taitung Airport
Taitung City, Taiwan
TAF RCFN 241700Z 2418/2518 35005KT 9999 FEW015 BKN032 BECMG 2500/2502 12005KT BECMG 2506/2508 01005KT TEMPO 2508/2514 07007KT FEW010 BKN017 BKN035

Mar-24@
18:00 UTC

Mar-24 @ 18:00 UTC

Mar-25@
00:00 UTC

Mar-25 @ 00:00 UTC

TAF RCFN 241700Z 2418/2518 35005KT 9999 FEW015 BKN032
Wind
  • 350° at 5 KTS
Cloud Levels
  • Few at 1,500' AGL
  • Broken at 3,200' AGL

Mar-25@
00:00 UTC

Mar-25 @ 00:00 UTC

Mar-25@
06:00 UTC

Mar-25 @ 06:00 UTC

BECMG 2500/2502 12005KT

Becoming

Becoming Conditions expected by Mon, Mar 25, 2019 @ 02:00 UTC

Wind
  • 120° at 5 KTS
Cloud Levels
  • Few at 1,500' AGL
  • Broken at 3,200' AGL

Mar-25@
06:00 UTC

Mar-25 @ 06:00 UTC

Mar-25@
18:00 UTC

Mar-25 @ 18:00 UTC

BECMG 2506/2508 01005KT

Becoming

Becoming Conditions expected by Mon, Mar 25, 2019 @ 08:00 UTC

Wind
  • 010° at 5 KTS
Cloud Levels
  • Few at 1,500' AGL
  • Broken at 3,200' AGL

Mar-25@
08:00 UTC

Mar-25 @ 08:00 UTC

Mar-25@
14:00 UTC

Mar-25 @ 14:00 UTC

TEMPO 2508/2514 07007KT FEW010 BKN017 BKN035

Temporary

Temporary Changes expected for less than half the time period

Wind
  • 070° at 7 KTS
Cloud Levels
  • Few at 1,000' AGL
  • Broken at 1,700' AGL
  • Broken at 3,500' AGL